Warning: Javascript must be enabled to use all the features on this page!


Page Loading - Please Wait...

* We've detected you're using a mobile device. Find our Next Generation Station Page here.
Click to hideNews Bulletins

Peak Streamflow for the Nation

USGS 03310300 NOLIN RIVER AT WHITE MILLS, KY

Hardin County, Kentucky
Hydrologic Unit Code 05110001
Latitude  37°33'43", Longitude  86°02'12" NAD27
Drainage area 360.0  square miles
Contributing drainage area 240.0  square miles
Gage datum 589.68 feet above NAVD88
Output formats
Table
Graph
Tab-separated file
peakfq (watstore) format
Reselect output format
Water
Year
Date Gage
Height
(feet)
Stream-
flow
(cfs)
1960 1960-02-10 13.12 3,860
1961 1961-05-09 22.02 7,770
1962 1962-02-28 22.59 8,060
1963 1963-03-06 15.53 4,820
1964 1964-03-05 31.74 16,700
1965 1965-03-27 13.21 3,890
1966 1966-02-13 14.80 4,530
1967 1967-08-02 21.80 7,660
1968 1968-04-05 21.61 7,560
1969 1969-01-31 13.77 4,000
1970 1970-04-29 34.86 19,400
1971 1970-12-23 21.96 7,740
1972 1972-04-16 27.72 11,700
1973 1972-12-09 25.44 9,660
1974 1974-01-11 26.51 10,500
1975 1975-02-24 28.18 12,200
1976 1976-02-19 29.82 13,900
1977 1977-03-13 14.87 4,390
1978 1977-12-06 23.62 8,570
1979 1978-12-09 34.02 18,500
1980 1979-12-14 15.67 4,750
1981 1981-05-19 15.58 4,710
1982 1982-01-23 14.92 4,410
1983 1983-04-30 24.85 9,310
1984 1984-05-08 32.12 16,400
1985 1984-12-22 22.33 7,930
1986 1986-02-07 11.34 2,940
1987 1987-03-01 20.03 6,780
1988 1987-12-26 17.73 5,680
1989 1989-02-14 34.65 19,200
1990 1990-02-16 19.60 6,560
1991 1990-12-19 23.91 10,600
1992 1991-12-03 15.91 5,670
1993 1993-02-22 17.58 6,600
1994 1994-03-11 21.13 8,710
1995 1995-05-19 24.50 9,050
1996 1996-01-24 16.60 6,050
1997 1997-03-02 36.46 24,500
1998 1998-04-15 16.03 4,680
1999 1999-01-08 11.73 3,090
2000 2000-02-19 17.94 5,420
2001 2001-02-17 12.29 3,290
2002 2002-03-21 24.74 8,600
2003 2003-02-16 22.80 8,090
2004 2004-05-28 24.51 8,480
2005 2005-03-29 18.38 5,600
2006 2006-09-24 18.15 9,070
2007 2006-10-28 11.23 4,600
2008 2008-04-05 24.43 11,900
2009 2009-05-10 13.47 5,630
2010 2010-05-03 29.99 15,100
2011 2011-05-04 25.90 12,800
2012 2011-12-06 15.99 7,090
2013 2013-03-19 12.96 5,310
2014 2014-04-05 14.08 5,970
2015 2015-03-11 15.49 6,810
2016 2015-12-24 14.00 5,930
2017 2017-06-24 17.37 7,860
2018 2018-02-23 20.33 8,500
2019 2019-02-13 19.90 8,280
2020 2019-12-01 19.96 8,310
2021 2021-03-02 20.66 8,670
2022 2022-03-08 20.66 8,670